Welcome to La Porte Aviation Services!

An aviation adventure awaits

Current Weather Conditions

Available data for KPPO from the past 2 hours
LA PORTE, IN
Metar
KPPO 200235Z AUTO 12003KT 10SM SCT005 OVC012 23/22 A2988 RMK AO2 T02300221

02:35 UTC

Wind: 120° 3kt

Visibility: 10 SM

Sky: SCT 500 ft

Temp: 23 deg C / 73.4 deg F

Dewpoint: 22 deg C / 71.6 deg F

Pressure: 29.88 inHg

Pireps (12)
ORD UA /OV ORD140035/TM 0248/FL120/TP B738/TB LGT-MOD
ORD UA /OV ORD/TM 0247/FL017/TP A320/SK OVC017/RM DURG DESCENT ON FINAL RUNWAY 10C
BEH UA /OV PMM/TM 0242/FL280/TP B738/TB NEG
FWA UA /OV FWA225020/TM 0203/FL030/TP CRJ2/RM VFR
LAF UA /OV BVT/TM 0133/FL265/TP H25B/IC LGT RIME 265-300
GSH UA /OV GSH180027/TM 0131/FL340/TP E75/TB OCNL LGT CHOP
MDW UA /OV CGT/TM 0127/FL350/TP B737/TB NEG/RM DEVIATING N FOR BUILDUPS
FWA UA /OV FWA/TM 0111/FLB007/TP CRJ2
FWA UA /OV FWA/TM 0111/FLB007/TP CRJ2
FWA UA /OV FWA/TM 0111/FLB007/TP CRJ2
FWA UA /OV FWA/TM 0111/FLB007/TP CRJ2
FWA UA /OV FWA/TM 0111/FLB007/TP CRJ2

Connect with us on Facebook!

Facebook By Weblizar Powered By Weblizar